sensor_id;sensor_type;location;lat;lon;timestamp;pressure;altitude;pressure_sealevel;temperature;humidity
52343;BME280;38277;51.972;4.624;2023-05-07T00:02:49;101790.0;;;16.2;86.5
52343;BME280;38277;51.972;4.624;2023-05-07T00:07:34;101800.0;;;16.2;86.5
52343;BME280;38277;51.972;4.624;2023-05-07T00:12:10;101800.0;;;16.2;87.0
52343;BME280;38277;51.972;4.624;2023-05-07T00:16:28;101800.0;;;16.2;87.0
52343;BME280;38277;51.972;4.624;2023-05-07T00:20:46;101790.0;;;16.2;87.0
52343;BME280;38277;51.972;4.624;2023-05-07T00:29:56;101780.0;;;16.3;87.0
52343;BME280;38277;51.972;4.624;2023-05-07T00:34:39;101780.0;;;16.3;87.0
52343;BME280;38277;51.972;4.624;2023-05-07T00:38:43;101790.0;;;16.3;87.0
52343;BME280;38277;51.972;4.624;2023-05-07T00:43:41;101790.0;;;16.3;87.0
52343;BME280;38277;51.972;4.624;2023-05-07T00:47:59;101790.0;;;16.3;87.0
52343;BME280;38277;51.972;4.624;2023-05-07T00:52:31;101780.0;;;16.3;87.0
52343;BME280;38277;51.972;4.624;2023-05-07T00:57:01;101780.0;;;16.3;87.0
52343;BME280;38277;51.972;4.624;2023-05-07T01:05:50;101780.0;;;16.2;87.0
52343;BME280;38277;51.972;4.624;2023-05-07T01:10:36;101780.0;;;16.2;87.0
52343;BME280;38277;51.972;4.624;2023-05-07T01:15:12;101770.0;;;16.2;87.0
52343;BME280;38277;51.972;4.624;2023-05-07T01:19:19;101770.0;;;16.1;86.5
52343;BME280;38277;51.972;4.624;2023-05-07T01:23:48;101770.0;;;16.1;87.0
52343;BME280;38277;51.972;4.624;2023-05-07T01:30:05;101770.0;;;16.1;87.0
52343;BME280;38277;51.972;4.624;2023-05-07T01:33:02;101770.0;;;16.1;87.0
52343;BME280;38277;51.972;4.624;2023-05-07T01:37:25;101760.0;;;16.1;87.5
52343;BME280;38277;51.972;4.624;2023-05-07T01:42:01;101760.0;;;16.1;87.5
52343;BME280;38277;51.972;4.624;2023-05-07T01:47:57;101750.0;;;16.1;87.5
52343;BME280;38277;51.972;4.624;2023-05-07T01:51:08;101770.0;;;16.1;88.0
52343;BME280;38277;51.972;4.624;2023-05-07T01:55:13;101760.0;;;16.1;88.0
52343;BME280;38277;51.972;4.624;2023-05-07T01:59:57;101750.0;;;16.1;88.0
52343;BME280;38277;51.972;4.624;2023-05-07T02:05:53;101760.0;;;16.1;88.0
52343;BME280;38277;51.972;4.624;2023-05-07T02:09:10;101760.0;;;16.1;88.0
52343;BME280;38277;51.972;4.624;2023-05-07T02:13:26;101750.0;;;16.1;88.0
52343;BME280;38277;51.972;4.624;2023-05-07T02:18:06;101760.0;;;16.1;88.0
52343;BME280;38277;51.972;4.624;2023-05-07T02:23:58;101770.0;;;16.1;88.5
52343;BME280;38277;51.972;4.624;2023-05-07T02:26:49;101760.0;;;16.1;88.5
52343;BME280;38277;51.972;4.624;2023-05-07T02:31:20;101770.0;;;16.1;88.5
52343;BME280;38277;51.972;4.624;2023-05-07T02:36:06;101760.0;;;16.1;88.5
52343;BME280;38277;51.972;4.624;2023-05-07T02:42:03;101770.0;;;16.1;88.5
52343;BME280;38277;51.972;4.624;2023-05-07T02:45:04;101760.0;;;16.1;88.5
52343;BME280;38277;51.972;4.624;2023-05-07T02:49:35;101770.0;;;16.1;88.0
52343;BME280;38277;51.972;4.624;2023-05-07T02:53:52;101760.0;;;16.2;88.5
52343;BME280;38277;51.972;4.624;2023-05-07T03:00:13;101760.0;;;16.2;88.5
52343;BME280;38277;51.972;4.624;2023-05-07T03:02:55;101760.0;;;16.2;88.5
52343;BME280;38277;51.972;4.624;2023-05-07T03:07:34;101760.0;;;16.2;88.5
52343;BME280;38277;51.972;4.624;2023-05-07T03:12:00;101760.0;;;16.2;88.5
52343;BME280;38277;51.972;4.624;2023-05-07T03:18:11;101760.0;;;16.2;88.5
52343;BME280;38277;51.972;4.624;2023-05-07T03:20:56;101760.0;;;16.2;88.5
52343;BME280;38277;51.972;4.624;2023-05-07T03:26:56;101760.0;;;16.2;88.5
52343;BME280;38277;51.972;4.624;2023-05-07T03:30:00;101760.0;;;16.2;88.5
52343;BME280;38277;51.972;4.624;2023-05-07T03:38:58;101760.0;;;16.2;88.5
52343;BME280;38277;51.972;4.624;2023-05-07T03:43:28;101760.0;;;16.2;88.5
52343;BME280;38277;51.972;4.624;2023-05-07T03:47:56;101760.0;;;16.2;88.5
52343;BME280;38277;51.972;4.624;2023-05-07T03:52:29;101760.0;;;16.2;88.5
52343;BME280;38277;51.972;4.624;2023-05-07T03:57:08;101760.0;;;16.2;88.5
52343;BME280;38277;51.972;4.624;2023-05-07T04:01:30;101760.0;;;16.2;88.5
52343;BME280;38277;51.972;4.624;2023-05-07T04:06:04;101780.0;;;16.2;88.5
52343;BME280;38277;51.972;4.624;2023-05-07T04:15:06;101780.0;;;16.1;89.0
52343;BME280;38277;51.972;4.624;2023-05-07T04:19:22;101780.0;;;16.1;89.0
52343;BME280;38277;51.972;4.624;2023-05-07T04:24:08;101780.0;;;16.2;89.0
52343;BME280;38277;51.972;4.624;2023-05-07T04:28:13;101780.0;;;16.2;89.0
52343;BME280;38277;51.972;4.624;2023-05-07T04:33:10;101780.0;;;16.2;88.5
52343;BME280;38277;51.972;4.624;2023-05-07T04:42:03;101770.0;;;16.2;88.5
52343;BME280;38277;51.972;4.624;2023-05-07T04:51:08;101780.0;;;16.2;88.5
52343;BME280;38277;51.972;4.624;2023-05-07T04:55:20;101780.0;;;16.2;88.5
52343;BME280;38277;51.972;4.624;2023-05-07T04:59:59;101780.0;;;16.2;88.5
52343;BME280;38277;51.972;4.624;2023-05-07T05:04:36;101780.0;;;16.3;88.5
52343;BME280;38277;51.972;4.624;2023-05-07T05:13:31;101790.0;;;16.4;88.5
52343;BME280;38277;51.972;4.624;2023-05-07T05:17:51;101800.0;;;16.5;88.5
52343;BME280;38277;51.972;4.624;2023-05-07T05:26:57;101810.0;;;16.5;88.0
52343;BME280;38277;51.972;4.624;2023-05-07T05:31:38;101810.0;;;16.6;88.0
52343;BME280;38277;51.972;4.624;2023-05-07T05:35:59;101820.0;;;16.6;88.0
52343;BME280;38277;51.972;4.624;2023-05-07T05:49:16;101820.0;;;16.7;88.0
52343;BME280;38277;51.972;4.624;2023-05-07T05:53:45;101820.0;;;16.8;88.0
52343;BME280;38277;51.972;4.624;2023-05-07T06:03:06;101830.0;;;17.0;88.0
52343;BME280;38277;51.972;4.624;2023-05-07T06:07:19;101840.0;;;17.1;87.5
52343;BME280;38277;51.972;4.624;2023-05-07T06:11:43;101830.0;;;17.1;87.0
52343;BME280;38277;51.972;4.624;2023-05-07T06:16:14;101850.0;;;17.1;86.5
52343;BME280;38277;51.972;4.624;2023-05-07T06:20:54;101840.0;;;17.1;86.5
52343;BME280;38277;51.972;4.624;2023-05-07T06:25:19;101850.0;;;17.0;86.5
52343;BME280;38277;51.972;4.624;2023-05-07T06:30:07;101850.0;;;17.0;87.0
52343;BME280;38277;51.972;4.624;2023-05-07T06:38:47;101840.0;;;17.0;87.5
52343;BME280;38277;51.972;4.624;2023-05-07T06:43:41;101840.0;;;17.1;88.0
52343;BME280;38277;51.972;4.624;2023-05-07T06:48:00;101830.0;;;17.2;88.0
52343;BME280;38277;51.972;4.624;2023-05-07T06:52:29;101830.0;;;17.3;88.0
52343;BME280;38277;51.972;4.624;2023-05-07T06:56:55;101830.0;;;17.4;87.5
52343;BME280;38277;51.972;4.624;2023-05-07T07:01:33;101830.0;;;17.6;87.0
52343;BME280;38277;51.972;4.624;2023-05-07T07:06:04;101840.0;;;17.7;86.5
52343;BME280;38277;51.972;4.624;2023-05-07T07:15:00;101840.0;;;17.9;85.5
52343;BME280;38277;51.972;4.624;2023-05-07T07:19:28;101840.0;;;18.0;85.5
52343;BME280;38277;51.972;4.624;2023-05-07T07:24:02;101830.0;;;18.1;85.5
52343;BME280;38277;51.972;4.624;2023-05-07T07:28:34;101840.0;;;18.2;85.5
52343;BME280;38277;51.972;4.624;2023-05-07T07:33:11;101840.0;;;18.3;85.0
52343;BME280;38277;51.972;4.624;2023-05-07T07:37:15;101830.0;;;18.5;84.5
52343;BME280;38277;51.972;4.624;2023-05-07T07:41:54;101840.0;;;18.7;83.5
52343;BME280;38277;51.972;4.624;2023-05-07T07:47:52;101840.0;;;18.8;83.0
52343;BME280;38277;51.972;4.624;2023-05-07T07:51:10;101850.0;;;18.9;82.5
52343;BME280;38277;51.972;4.624;2023-05-07T07:55:20;101840.0;;;19.1;82.5
52343;BME280;38277;51.972;4.624;2023-05-07T07:59:52;101840.0;;;19.2;81.5
52343;BME280;38277;51.972;4.624;2023-05-07T08:04:13;101850.0;;;19.4;81.0
52343;BME280;38277;51.972;4.624;2023-05-07T08:08:53;101840.0;;;19.6;81.0
52343;BME280;38277;51.972;4.624;2023-05-07T08:13:26;101850.0;;;20.1;79.5
52343;BME280;38277;51.972;4.624;2023-05-07T08:17:47;101860.0;;;20.5;78.0
52343;BME280;38277;51.972;4.624;2023-05-07T08:22:12;101850.0;;;20.8;75.0
52343;BME280;38277;51.972;4.624;2023-05-07T08:26:55;101860.0;;;21.0;73.5
52343;BME280;38277;51.972;4.624;2023-05-07T08:31:18;101870.0;;;21.1;71.5
52343;BME280;38277;51.972;4.624;2023-05-07T08:36:07;101870.0;;;21.2;71.0
52343;BME280;38277;51.972;4.624;2023-05-07T08:40:18;101870.0;;;21.4;70.5
52343;BME280;38277;51.972;4.624;2023-05-07T08:44:57;101870.0;;;21.5;69.0
52343;BME280;38277;51.972;4.624;2023-05-07T08:49:21;101870.0;;;21.5;68.5
52343;BME280;38277;51.972;4.624;2023-05-07T08:53:54;101860.0;;;21.7;67.0
52343;BME280;38277;51.972;4.624;2023-05-07T08:58:39;101870.0;;;21.9;66.5
52343;BME280;38277;51.972;4.624;2023-05-07T09:03:07;101870.0;;;22.0;66.0
52343;BME280;38277;51.972;4.624;2023-05-07T09:07:30;101870.0;;;22.1;65.0
52343;BME280;38277;51.972;4.624;2023-05-07T09:12:04;101870.0;;;22.2;64.0
52343;BME280;38277;51.972;4.624;2023-05-07T09:16:29;101870.0;;;22.2;65.0
52343;BME280;38277;51.972;4.624;2023-05-07T09:20:57;101870.0;;;22.3;64.0
52343;BME280;38277;51.972;4.624;2023-05-07T09:25:30;101870.0;;;22.3;64.0
52343;BME280;38277;51.972;4.624;2023-05-07T09:30:04;101880.0;;;22.4;62.0
52343;BME280;38277;51.972;4.624;2023-05-07T09:34:38;101880.0;;;22.3;61.0
52343;BME280;38277;51.972;4.624;2023-05-07T09:38:53;101880.0;;;22.4;61.0
52343;BME280;38277;51.972;4.624;2023-05-07T09:43:21;101880.0;;;22.5;60.0
52343;BME280;38277;51.972;4.624;2023-05-07T09:48:07;101880.0;;;22.4;60.0
52343;BME280;38277;51.972;4.624;2023-05-07T09:52:31;101880.0;;;22.4;60.0
52343;BME280;38277;51.972;4.624;2023-05-07T09:56:47;101880.0;;;22.6;61.0
52343;BME280;38277;51.972;4.624;2023-05-07T10:01:23;101880.0;;;23.0;59.5
52343;BME280;38277;51.972;4.624;2023-05-07T10:05:46;101890.0;;;23.3;59.5
52343;BME280;38277;51.972;4.624;2023-05-07T10:10:36;101890.0;;;23.7;58.0
52343;BME280;38277;51.972;4.624;2023-05-07T10:14:52;101880.0;;;24.0;56.5
52343;BME280;38277;51.972;4.624;2023-05-07T10:19:18;101880.0;;;24.2;54.5
52343;BME280;38277;51.972;4.624;2023-05-07T10:23:44;101870.0;;;24.4;55.0
52343;BME280;38277;51.972;4.624;2023-05-07T10:32:59;101880.0;;;24.9;53.5
52343;BME280;38277;51.972;4.624;2023-05-07T10:37:34;101880.0;;;25.0;51.0
52343;BME280;38277;51.972;4.624;2023-05-07T10:41:49;101880.0;;;25.2;52.0
52343;BME280;38277;51.972;4.624;2023-05-07T10:46:20;101890.0;;;25.6;50.5
52343;BME280;38277;51.972;4.624;2023-05-07T10:51:20;101880.0;;;26.1;49.0
52343;BME280;38277;51.972;4.624;2023-05-07T10:55:34;101900.0;;;26.5;47.5
52343;BME280;38277;51.972;4.624;2023-05-07T10:59:41;101890.0;;;26.7;47.0
52343;BME280;38277;51.972;4.624;2023-05-07T11:09:00;101890.0;;;26.5;45.5
52343;BME280;38277;51.972;4.624;2023-05-07T11:13:18;101890.0;;;26.3;46.0
52343;BME280;38277;51.972;4.624;2023-05-07T11:18:03;101900.0;;;26.3;46.0
52343;BME280;38277;51.972;4.624;2023-05-07T11:22:36;101890.0;;;26.4;47.5
52343;BME280;38277;51.972;4.624;2023-05-07T11:26:52;101890.0;;;26.6;46.0
52343;BME280;38277;51.972;4.624;2023-05-07T11:31:31;101880.0;;;26.5;46.5
52343;BME280;38277;51.972;4.624;2023-05-07T11:36:05;101880.0;;;26.1;47.5
52343;BME280;38277;51.972;4.624;2023-05-07T11:45:10;101890.0;;;25.4;49.5
52343;BME280;38277;51.972;4.624;2023-05-07T11:49:26;101890.0;;;25.3;49.0
52343;BME280;38277;51.972;4.624;2023-05-07T11:53:45;101900.0;;;25.1;49.5
52343;BME280;38277;51.972;4.624;2023-05-07T11:58:24;101900.0;;;25.0;50.0
52343;BME280;38277;51.972;4.624;2023-05-07T12:03:11;101900.0;;;25.0;49.5
52343;BME280;38277;51.972;4.624;2023-05-07T12:07:39;101900.0;;;25.0;50.0
52343;BME280;38277;51.972;4.624;2023-05-07T12:11:52;101900.0;;;25.1;49.0
52343;BME280;38277;51.972;4.624;2023-05-07T12:16:29;101900.0;;;25.2;49.0
52343;BME280;38277;51.972;4.624;2023-05-07T12:20:58;101900.0;;;25.2;49.0
52343;BME280;38277;51.972;4.624;2023-05-07T12:25:29;101900.0;;;25.7;47.5
52343;BME280;38277;51.972;4.624;2023-05-07T12:29:43;101900.0;;;26.6;44.5
52343;BME280;38277;51.972;4.624;2023-05-07T12:34:27;101890.0;;;27.9;43.0
52343;BME280;38277;51.972;4.624;2023-05-07T12:38:59;101900.0;;;28.6;41.0
52343;BME280;38277;51.972;4.624;2023-05-07T12:43:15;101900.0;;;28.1;42.0
52343;BME280;38277;51.972;4.624;2023-05-07T12:48:09;101900.0;;;27.4;43.5
52343;BME280;38277;51.972;4.624;2023-05-07T12:52:13;101910.0;;;26.8;44.0
52343;BME280;38277;51.972;4.624;2023-05-07T12:56:51;101910.0;;;26.1;46.0
52343;BME280;38277;51.972;4.624;2023-05-07T13:01:20;101910.0;;;25.7;47.0
52343;BME280;38277;51.972;4.624;2023-05-07T13:05:44;101920.0;;;25.4;48.5
52343;BME280;38277;51.972;4.624;2023-05-07T13:14:55;101930.0;;;24.8;46.5
52343;BME280;38277;51.972;4.624;2023-05-07T13:19:16;101930.0;;;24.2;47.5
52343;BME280;38277;51.972;4.624;2023-05-07T13:24:08;101950.0;;;23.8;50.0
52343;BME280;38277;51.972;4.624;2023-05-07T13:28:36;101940.0;;;23.3;52.5
52343;BME280;38277;51.972;4.624;2023-05-07T13:33:01;101950.0;;;22.8;54.5
52343;BME280;38277;51.972;4.624;2023-05-07T13:37:14;101950.0;;;22.4;56.0
52343;BME280;38277;51.972;4.624;2023-05-07T13:50:47;101960.0;;;21.6;60.0
52343;BME280;38277;51.972;4.624;2023-05-07T13:55:29;101970.0;;;21.6;60.5
52343;BME280;38277;51.972;4.624;2023-05-07T14:00:02;101980.0;;;21.6;61.0
52343;BME280;38277;51.972;4.624;2023-05-07T14:04:41;101980.0;;;21.6;61.5
52343;BME280;38277;51.972;4.624;2023-05-07T14:09:05;101990.0;;;21.4;62.0
52343;BME280;38277;51.972;4.624;2023-05-07T14:15:16;102000.0;;;21.1;63.0
52343;BME280;38277;51.972;4.624;2023-05-07T14:17:58;101990.0;;;21.0;63.5
52343;BME280;38277;51.972;4.624;2023-05-07T14:22:23;101990.0;;;20.9;64.5
52343;BME280;38277;51.972;4.624;2023-05-07T14:26:48;102000.0;;;20.9;65.0
52343;BME280;38277;51.972;4.624;2023-05-07T14:33:03;102000.0;;;21.0;66.0
52343;BME280;38277;51.972;4.624;2023-05-07T14:35:48;102010.0;;;21.1;66.5
52343;BME280;38277;51.972;4.624;2023-05-07T14:40:37;102000.0;;;21.1;67.0
52343;BME280;38277;51.972;4.624;2023-05-07T14:44:48;102000.0;;;21.0;67.5
52343;BME280;38277;51.972;4.624;2023-05-07T14:49:29;102000.0;;;21.0;68.5
52343;BME280;38277;51.972;4.624;2023-05-07T14:58:18;102000.0;;;20.8;69.0
52343;BME280;38277;51.972;4.624;2023-05-07T15:02:54;102010.0;;;20.7;69.0
52343;BME280;38277;51.972;4.624;2023-05-07T15:07:32;102000.0;;;20.7;69.5
52343;BME280;38277;51.972;4.624;2023-05-07T15:11:57;102000.0;;;20.8;69.5
52343;BME280;38277;51.972;4.624;2023-05-07T15:16:18;101990.0;;;20.9;69.0
52343;BME280;38277;51.972;4.624;2023-05-07T15:20:46;102000.0;;;20.9;69.0
52343;BME280;38277;51.972;4.624;2023-05-07T15:25:23;102010.0;;;21.0;68.5
52343;BME280;38277;51.972;4.624;2023-05-07T15:34:16;102020.0;;;21.0;68.5
52343;BME280;38277;51.972;4.624;2023-05-07T15:38:46;102020.0;;;21.1;68.5
52343;BME280;38277;51.972;4.624;2023-05-07T15:48:03;102030.0;;;21.2;67.5
52343;BME280;38277;51.972;4.624;2023-05-07T15:52:28;102030.0;;;21.1;67.0
52343;BME280;38277;51.972;4.624;2023-05-07T15:57:01;102040.0;;;21.1;67.0
52343;BME280;38277;51.972;4.624;2023-05-07T16:01:21;102030.0;;;21.0;67.0
52343;BME280;38277;51.972;4.624;2023-05-07T16:10:40;102030.0;;;20.9;67.0
52343;BME280;38277;51.972;4.624;2023-05-07T16:14:43;102020.0;;;20.9;67.5
52343;BME280;38277;51.972;4.624;2023-05-07T16:19:22;102020.0;;;21.0;67.5
52343;BME280;38277;51.972;4.624;2023-05-07T16:23:52;102030.0;;;21.1;67.5
52343;BME280;38277;51.972;4.624;2023-05-07T16:28:16;102030.0;;;21.2;67.5
52343;BME280;38277;51.972;4.624;2023-05-07T16:32:48;102050.0;;;21.2;67.0
52343;BME280;38277;51.972;4.624;2023-05-07T16:37:26;102040.0;;;21.1;67.5
52343;BME280;38277;51.972;4.624;2023-05-07T16:46:19;102040.0;;;20.9;68.5
52343;BME280;38277;51.972;4.624;2023-05-07T16:50:54;102030.0;;;20.8;69.5
52343;BME280;38277;51.972;4.624;2023-05-07T16:55:19;102030.0;;;20.8;70.0
52343;BME280;38277;51.972;4.624;2023-05-07T17:04:24;102030.0;;;20.7;71.0
52343;BME280;38277;51.972;4.624;2023-05-07T17:09:02;102030.0;;;20.6;71.5
52343;BME280;38277;51.972;4.624;2023-05-07T17:13:29;102030.0;;;20.6;72.0
52343;BME280;38277;51.972;4.624;2023-05-07T17:22:36;102050.0;;;20.4;73.0
52343;BME280;38277;51.972;4.624;2023-05-07T17:26:58;102040.0;;;20.3;73.5
52343;BME280;38277;51.972;4.624;2023-05-07T17:31:20;102040.0;;;20.2;74.0
52343;BME280;38277;51.972;4.624;2023-05-07T17:36:11;102050.0;;;20.2;74.0
52343;BME280;38277;51.972;4.624;2023-05-07T17:40:31;102050.0;;;20.1;74.0
52343;BME280;38277;51.972;4.624;2023-05-07T17:44:59;102060.0;;;20.0;74.5
52343;BME280;38277;51.972;4.624;2023-05-07T17:49:13;102070.0;;;19.9;74.5
52343;BME280;38277;51.972;4.624;2023-05-07T17:58:23;102080.0;;;19.8;75.0
52343;BME280;38277;51.972;4.624;2023-05-07T18:02:51;102080.0;;;19.8;75.0
52343;BME280;38277;51.972;4.624;2023-05-07T18:07:21;102080.0;;;19.7;75.0
52343;BME280;38277;51.972;4.624;2023-05-07T18:11:55;102080.0;;;19.7;75.0
52343;BME280;38277;51.972;4.624;2023-05-07T18:16:13;102080.0;;;19.6;75.5
52343;BME280;38277;51.972;4.624;2023-05-07T18:20:56;102080.0;;;19.6;75.5
52343;BME280;38277;51.972;4.624;2023-05-07T18:25:20;102090.0;;;19.6;76.0
52343;BME280;38277;51.972;4.624;2023-05-07T18:34:33;102090.0;;;19.5;76.0
52343;BME280;38277;51.972;4.624;2023-05-07T18:38:47;102090.0;;;19.5;76.5
52343;BME280;38277;51.972;4.624;2023-05-07T18:43:39;102100.0;;;19.5;76.5
52343;BME280;38277;51.972;4.624;2023-05-07T18:48:07;102110.0;;;19.5;76.5
52343;BME280;38277;51.972;4.624;2023-05-07T18:57:01;102110.0;;;19.5;76.5
52343;BME280;38277;51.972;4.624;2023-05-07T19:01:29;102100.0;;;19.4;77.0
52343;BME280;38277;51.972;4.624;2023-05-07T19:10:15;102120.0;;;19.3;77.0
52343;BME280;38277;51.972;4.624;2023-05-07T19:14:45;102100.0;;;19.2;77.0
52343;BME280;38277;51.972;4.624;2023-05-07T19:19:31;102120.0;;;19.2;77.0
52343;BME280;38277;51.972;4.624;2023-05-07T19:23:59;102120.0;;;19.1;77.5
52343;BME280;38277;51.972;4.624;2023-05-07T19:28:26;102120.0;;;19.0;77.5
52343;BME280;38277;51.972;4.624;2023-05-07T19:32:53;102130.0;;;19.0;78.0
52343;BME280;38277;51.972;4.624;2023-05-07T19:37:36;102140.0;;;18.9;78.0
52343;BME280;38277;51.972;4.624;2023-05-07T19:41:52;102160.0;;;18.9;78.0
52343;BME280;38277;51.972;4.624;2023-05-07T19:46:28;102160.0;;;18.8;78.0
52343;BME280;38277;51.972;4.624;2023-05-07T19:50:59;102170.0;;;18.8;78.5
52343;BME280;38277;51.972;4.624;2023-05-07T19:55:28;102170.0;;;18.7;78.5
52343;BME280;38277;51.972;4.624;2023-05-07T19:59:43;102180.0;;;18.7;79.0
52343;BME280;38277;51.972;4.624;2023-05-07T20:04:19;102190.0;;;18.7;79.5
52343;BME280;38277;51.972;4.624;2023-05-07T20:08:59;102190.0;;;18.7;79.5
52343;BME280;38277;51.972;4.624;2023-05-07T20:13:16;102200.0;;;18.7;79.5
52343;BME280;38277;51.972;4.624;2023-05-07T20:17:58;102200.0;;;18.6;80.0
52343;BME280;38277;51.972;4.624;2023-05-07T20:22:35;102190.0;;;18.6;80.0
52343;BME280;38277;51.972;4.624;2023-05-07T20:31:19;102200.0;;;18.6;80.5
52343;BME280;38277;51.972;4.624;2023-05-07T20:35:58;102200.0;;;18.6;80.5
52343;BME280;38277;51.972;4.624;2023-05-07T20:40:11;102200.0;;;18.7;80.5
52343;BME280;38277;51.972;4.624;2023-05-07T20:44:51;102210.0;;;18.6;80.5
52343;BME280;38277;51.972;4.624;2023-05-07T20:49:25;102210.0;;;18.6;80.5
52343;BME280;38277;51.972;4.624;2023-05-07T20:54:03;102210.0;;;18.6;80.5
52343;BME280;38277;51.972;4.624;2023-05-07T20:58:31;102220.0;;;18.6;81.0
52343;BME280;38277;51.972;4.624;2023-05-07T21:07:33;102210.0;;;18.5;81.0
52343;BME280;38277;51.972;4.624;2023-05-07T21:12:06;102210.0;;;18.4;81.5
52343;BME280;38277;51.972;4.624;2023-05-07T21:16:18;102210.0;;;18.3;81.5
52343;BME280;38277;51.972;4.624;2023-05-07T21:20:52;102210.0;;;18.2;82.0
52343;BME280;38277;51.972;4.624;2023-05-07T21:25:27;102210.0;;;18.1;82.0
52343;BME280;38277;51.972;4.624;2023-05-07T21:34:26;102230.0;;;18.0;82.5
52343;BME280;38277;51.972;4.624;2023-05-07T21:43:37;102240.0;;;17.8;83.0
52343;BME280;38277;51.972;4.624;2023-05-07T21:47:45;102240.0;;;17.7;83.0
52343;BME280;38277;51.972;4.624;2023-05-07T21:52:23;102240.0;;;17.6;83.5
52343;BME280;38277;51.972;4.624;2023-05-07T21:57:10;102240.0;;;17.5;83.5
52343;BME280;38277;51.972;4.624;2023-05-07T22:01:27;102240.0;;;17.4;84.0
52343;BME280;38277;51.972;4.624;2023-05-07T22:06:05;102240.0;;;17.3;84.0
52343;BME280;38277;51.972;4.624;2023-05-07T22:10:13;102230.0;;;17.2;84.0
52343;BME280;38277;51.972;4.624;2023-05-07T22:19:26;102240.0;;;17.1;84.5
52343;BME280;38277;51.972;4.624;2023-05-07T22:24:09;102230.0;;;17.1;84.5
52343;BME280;38277;51.972;4.624;2023-05-07T22:28:12;102230.0;;;17.0;85.0
52343;BME280;38277;51.972;4.624;2023-05-07T22:33:10;102230.0;;;17.0;85.0
52343;BME280;38277;51.972;4.624;2023-05-07T22:37:40;102230.0;;;17.0;85.0
52343;BME280;38277;51.972;4.624;2023-05-07T22:42:08;102230.0;;;17.0;85.0
52343;BME280;38277;51.972;4.624;2023-05-07T22:46:11;102240.0;;;17.0;85.5
52343;BME280;38277;51.972;4.624;2023-05-07T22:55:30;102240.0;;;17.0;86.0
52343;BME280;38277;51.972;4.624;2023-05-07T22:59:53;102240.0;;;17.0;86.0
52343;BME280;38277;51.972;4.624;2023-05-07T23:04:22;102240.0;;;16.9;86.0
52343;BME280;38277;51.972;4.624;2023-05-07T23:08:42;102240.0;;;16.9;86.0
52343;BME280;38277;51.972;4.624;2023-05-07T23:13:16;102240.0;;;16.9;86.0
52343;BME280;38277;51.972;4.624;2023-05-07T23:17:44;102230.0;;;16.8;86.0
52343;BME280;38277;51.972;4.624;2023-05-07T23:26:53;102240.0;;;16.7;86.0
52343;BME280;38277;51.972;4.624;2023-05-07T23:31:33;102240.0;;;16.7;85.5
52343;BME280;38277;51.972;4.624;2023-05-07T23:35:49;102250.0;;;16.6;86.0
52343;BME280;38277;51.972;4.624;2023-05-07T23:44:58;102250.0;;;16.4;86.0
52343;BME280;38277;51.972;4.624;2023-05-07T23:49:15;102250.0;;;16.4;86.5
52343;BME280;38277;51.972;4.624;2023-05-07T23:54:01;102240.0;;;16.3;86.5
52343;BME280;38277;51.972;4.624;2023-05-07T23:58:16;102240.0;;;16.2;86.5
